Longjia Airport
ZYCC : now visible

Airfield :











YOU CAN JOIN US ON...

 
LOGIN :

Register | Disclaimer

   EN    FR    IT 

 









Legend :    VFR   Marginal VFR   IFR   Intensive IFR   Very Intensive IFR
Visi :
Ceiling :
>= 8 km
>= 3000ft
5 to 8 km
1000 to 3000 ft
1500m to 5 km
500 to 1000 ft
800 to 1500m
200 to 500 ft
< 800m
< 200 ft
Symbols :   Thunderstorms  Fog  Heavy snow  Heavy precipitations  Wind > 20 kt






- Airport Elevation : 706 ft
- IATA code : CGQ


ZYCC - Longjia

CURRENT METAR :
  • 260900Z 16003MPS 130V220 4000 HZ NSC M08/M17 Q1032 NOSIG

EXPIRED METARs :
  • 260800Z 16003MPS 140V240 3000 HZ NSC M08/M16 Q1032 NOSIG
  • 260700Z 16002MPS 130V200 2500 HZ NSC M07/M16 Q1032 NOSIG

TAF AMD TAF ZYCC
Valid from the 26 at 06:00 until the 27 at 06:00 UTC


260714Z 2606/2706 19004MPS 4000 HZ NSC TXM10/2606Z TNM22/2621Z
TEMPO 2607/2612 2000



MET'MAP, your aeronautical weather chart ! - Copyright ORBIFLY December 2007 - Disclaimer

ORBIFLY MET'MAP TEAM :

Programming & Development : Alexandra Zaïnal
Concept & original design : Baudouin d'Aumeries
Assistance for programming : Marc-Olivier Méhu
Technical & hardware support : Manuel Goepfert

Contact : metmap@orbifly.com




SOURCES & CREDITS :

   NOAA       Earth
Advisory